createdAt,value
2018-01-29T00:00:40.244Z,8.3
2018-01-29T00:01:40.961Z,8.3
2018-01-29T00:02:40.392Z,8.3
2018-01-29T00:03:40.727Z,8.29
2018-01-29T00:04:40.164Z,8.29
2018-01-29T00:05:40.191Z,8.3
2018-01-29T00:06:40.900Z,8.26
2018-01-29T00:07:39.766Z,8.3
2018-01-29T00:08:40.520Z,8.31
2018-01-29T00:09:40.392Z,8.27
2018-01-29T00:10:39.783Z,8.29
2018-01-29T00:11:40.278Z,8.26
2018-01-29T00:12:40.164Z,8.27
2018-01-29T00:13:39.864Z,8.29
2018-01-29T00:14:39.801Z,8.26
2018-01-29T00:15:39.846Z,8.24
2018-01-29T00:16:40.183Z,8.27
2018-01-29T00:17:41.353Z,8.26
2018-01-29T00:18:40.820Z,8.26
2018-01-29T00:19:40.100Z,8.24
2018-01-29T00:20:40.323Z,8.26
2018-01-29T00:21:39.779Z,8.23
2018-01-29T00:22:40.180Z,8.24
2018-01-29T00:23:40.919Z,8.23
2018-01-29T00:24:39.662Z,8.23
2018-01-29T00:25:40.315Z,8.24
2018-01-29T00:26:39.647Z,8.2
2018-01-29T00:27:40.348Z,8.24
2018-01-29T00:28:40.020Z,8.21
2018-01-29T00:29:40.055Z,8.23
2018-01-29T00:30:39.386Z,8.21
2018-01-29T00:31:39.320Z,8.23
2018-01-29T00:32:38.670Z,8.23
2018-01-29T00:33:40.278Z,8.24
2018-01-29T00:34:38.658Z,8.23
2018-01-29T00:35:39.403Z,8.21
2018-01-29T00:36:40.390Z,8.2
2018-01-29T00:37:38.862Z,8.23
2018-01-29T00:38:40.130Z,8.23
2018-01-29T00:39:38.676Z,8.23
2018-01-29T00:40:40.191Z,8.23
2018-01-29T00:41:40.359Z,8.21
2018-01-29T00:42:39.914Z,8.23
2018-01-29T00:43:38.934Z,8.23
2018-01-29T00:44:40.311Z,8.21
2018-01-29T00:45:41.367Z,8.21
2018-01-29T00:46:41.202Z,8.2
2018-01-29T00:47:38.654Z,8.23
2018-01-29T00:48:40.277Z,8.21
2018-01-29T00:49:40.186Z,8.21
2018-01-29T00:50:39.243Z,8.21
2018-01-29T00:51:39.333Z,8.2
2018-01-29T00:52:38.631Z,8.24
2018-01-29T00:53:39.196Z,8.2
2018-01-29T00:54:39.781Z,8.2
2018-01-29T00:55:38.783Z,8.2
2018-01-29T00:56:39.270Z,8.2
2018-01-29T00:57:38.839Z,8.21
2018-01-29T00:58:38.864Z,8.2
2018-01-29T00:59:40.804Z,8.21
2018-01-29T01:00:39.328Z,8.23
2018-01-29T01:01:40.805Z,8.2
2018-01-29T01:02:38.931Z,8.2
2018-01-29T01:03:38.488Z,8.2
2018-01-29T01:04:39.375Z,8.2
2018-01-29T01:05:39.283Z,8.23
2018-01-29T01:06:38.696Z,8.2
2018-01-29T01:07:38.692Z,8.2
2018-01-29T01:08:38.737Z,8.23
2018-01-29T01:09:38.663Z,8.21
2018-01-29T01:10:39.201Z,8.23
2018-01-29T01:11:39.381Z,8.21
2018-01-29T01:12:38.661Z,8.23
2018-01-29T01:13:39.348Z,8.23
2018-01-29T01:14:39.710Z,8.21
2018-01-29T01:15:38.746Z,8.24
2018-01-29T01:16:38.611Z,8.21
2018-01-29T01:17:40.868Z,8.26
2018-01-29T01:18:38.559Z,8.26
2018-01-29T01:19:41.040Z,8.27
2018-01-29T01:20:39.579Z,8.26
2018-01-29T01:21:40.012Z,8.27
2018-01-29T01:22:40.173Z,8.26
2018-01-29T01:23:40.315Z,8.24
2018-01-29T01:24:39.244Z,8.27
2018-01-29T01:25:40.722Z,8.26
2018-01-29T01:26:41.497Z,8.23
2018-01-29T01:27:40.176Z,8.24
2018-01-29T01:28:39.853Z,8.24
2018-01-29T01:29:38.603Z,8.26
2018-01-29T01:30:39.910Z,8.23
2018-01-29T01:31:40.056Z,8.26
2018-01-29T01:32:39.271Z,8.26
2018-01-29T01:33:39.294Z,8.24
2018-01-29T01:34:38.525Z,8.24
2018-01-29T01:35:39.370Z,8.24
2018-01-29T01:36:40.785Z,8.26
2018-01-29T01:37:40.289Z,8.26
2018-01-29T01:38:39.966Z,8.24
2018-01-29T01:39:38.788Z,8.26
2018-01-29T01:40:39.615Z,8.24
2018-01-29T01:41:39.796Z,8.23
2018-01-29T01:42:42.176Z,8.26
2018-01-29T01:43:38.632Z,8.23
2018-01-29T01:44:39.599Z,8.23
2018-01-29T01:45:39.445Z,8.27
2018-01-29T01:46:39.002Z,8.24
2018-01-29T01:47:39.366Z,8.27
2018-01-29T01:48:39.715Z,8.26
2018-01-29T01:49:38.843Z,8.26
2018-01-29T01:50:39.260Z,8.26
2018-01-29T01:51:38.664Z,8.24
2018-01-29T01:52:38.891Z,8.26
2018-01-29T01:53:38.878Z,8.24
2018-01-29T01:54:39.236Z,8.29
2018-01-29T01:55:39.333Z,8.24
2018-01-29T01:56:38.701Z,8.27
2018-01-29T01:57:39.150Z,8.26
2018-01-29T01:58:38.784Z,8.26
2018-01-29T01:59:39.451Z,8.26
2018-01-29T02:00:38.920Z,8.26
2018-01-29T02:01:40.422Z,8.24
2018-01-29T02:02:38.906Z,8.24
2018-01-29T02:03:39.924Z,8.24
2018-01-29T02:04:39.473Z,8.24
2018-01-29T02:05:38.821Z,8.23
2018-01-29T02:06:39.369Z,8.21
2018-01-29T02:07:38.607Z,8.24
2018-01-29T02:08:39.683Z,8.24
2018-01-29T02:09:39.464Z,8.23
2018-01-29T02:10:38.669Z,8.24
2018-01-29T02:11:38.757Z,8.24
2018-01-29T02:12:42.292Z,8.24
2018-01-29T02:13:40.949Z,8.24
2018-01-29T02:14:40.957Z,8.23
2018-01-29T02:15:40.020Z,8.24
2018-01-29T02:16:39.524Z,8.24
2018-01-29T02:17:40.497Z,8.26
2018-01-29T02:18:39.515Z,8.24
2018-01-29T02:19:38.913Z,8.24
2018-01-29T02:20:39.257Z,8.2
2018-01-29T02:21:39.675Z,8.2
2018-01-29T02:22:39.479Z,8.26
2018-01-29T02:23:39.615Z,8.23
2018-01-29T02:24:39.533Z,8.19
2018-01-29T02:25:39.321Z,8.23
2018-01-29T02:26:41.404Z,8.24
2018-01-29T02:27:39.362Z,8.24
2018-01-29T02:28:41.611Z,8.24
2018-01-29T02:29:39.441Z,8.2
2018-01-29T02:30:39.051Z,8.24
2018-01-29T02:31:38.852Z,8.23
2018-01-29T02:32:39.848Z,8.23
2018-01-29T02:33:38.865Z,8.21
2018-01-29T02:34:41.237Z,8.23
2018-01-29T02:35:39.377Z,8.21
2018-01-29T02:36:40.761Z,8.23
2018-01-29T02:37:39.829Z,8.23
2018-01-29T02:38:38.784Z,8.21
2018-01-29T02:39:38.900Z,8.23
2018-01-29T02:40:39.521Z,8.24
2018-01-29T02:41:40.234Z,8.23
2018-01-29T02:42:39.703Z,8.24
2018-01-29T02:43:40.449Z,8.24
2018-01-29T02:44:40.419Z,8.24
2018-01-29T02:45:39.927Z,8.24
2018-01-29T02:46:40.566Z,8.24
2018-01-29T02:47:41.237Z,8.23
2018-01-29T02:48:38.768Z,8.26
2018-01-29T02:49:38.813Z,8.23
2018-01-29T02:50:38.827Z,8.24
2018-01-29T02:51:38.803Z,8.24
2018-01-29T02:52:38.963Z,8.23
2018-01-29T02:53:39.006Z,8.21
2018-01-29T02:54:39.026Z,8.24
2018-01-29T02:55:40.157Z,8.23
2018-01-29T02:56:41.752Z,8.21
2018-01-29T02:57:39.813Z,8.23
2018-01-29T02:58:40.423Z,8.2
2018-01-29T02:59:39.498Z,8.23
2018-01-29T03:00:40.346Z,8.19
2018-01-29T03:01:38.967Z,8.21
2018-01-29T03:02:39.477Z,8.23
2018-01-29T03:03:40.015Z,8.19
2018-01-29T03:04:39.033Z,8.17
2018-01-29T03:05:39.651Z,8.21
2018-01-29T03:06:39.650Z,8.2
2018-01-29T03:07:38.908Z,8.17
2018-01-29T03:08:38.616Z,8.2
2018-01-29T03:09:39.056Z,8.2
2018-01-29T03:10:38.904Z,8.2
2018-01-29T03:11:38.642Z,8.21
2018-01-29T03:12:38.846Z,8.21
2018-01-29T03:13:38.676Z,8.17
2018-01-29T03:14:39.230Z,8.2
2018-01-29T03:15:39.876Z,8.2
2018-01-29T03:16:39.907Z,8.17
2018-01-29T03:17:39.587Z,8.16
2018-01-29T03:18:39.490Z,8.19
2018-01-29T03:19:38.854Z,8.2
2018-01-29T03:20:38.950Z,8.17
2018-01-29T03:21:39.005Z,8.17
2018-01-29T03:22:40.715Z,8.17
2018-01-29T03:23:39.433Z,8.2
2018-01-29T03:24:38.831Z,8.19
2018-01-29T03:25:39.116Z,8.17
2018-01-29T03:26:40.830Z,8.2
2018-01-29T03:27:38.901Z,8.16
2018-01-29T03:28:39.340Z,8.14
2018-01-29T03:29:40.382Z,8.16
2018-01-29T03:30:39.115Z,8.17
2018-01-29T03:31:39.457Z,8.19
2018-01-29T03:32:39.772Z,8.14
2018-01-29T03:33:38.951Z,8.16
2018-01-29T03:34:38.717Z,8.16
2018-01-29T03:35:39.950Z,8.14
2018-01-29T03:36:39.041Z,8.16
2018-01-29T03:37:39.722Z,8.16
2018-01-29T03:38:38.936Z,8.14
2018-01-29T03:39:40.841Z,8.13
2018-01-29T03:40:39.709Z,8.13
2018-01-29T03:41:38.750Z,8.14
2018-01-29T03:42:41.454Z,8.14
2018-01-29T03:43:38.807Z,8.1
2018-01-29T03:44:38.756Z,8.14
2018-01-29T03:45:39.662Z,8.13
2018-01-29T03:46:38.667Z,8.14
2018-01-29T03:47:38.844Z,8.12
2018-01-29T03:48:39.031Z,8.12
2018-01-29T03:49:38.954Z,8.09
2018-01-29T03:50:39.136Z,8.12
2018-01-29T03:51:39.714Z,8.1
2018-01-29T03:52:40.339Z,8.1
2018-01-29T03:53:40.949Z,8.1
2018-01-29T03:54:39.560Z,8.1
2018-01-29T03:55:39.366Z,8.09
2018-01-29T03:56:39.751Z,8.1
2018-01-29T03:57:39.680Z,8.1
2018-01-29T03:58:39.323Z,8.08
2018-01-29T03:59:40.613Z,8.08
2018-01-29T04:00:39.059Z,8.08
2018-01-29T04:01:39.815Z,8.09
2018-01-29T04:02:39.894Z,8.06
2018-01-29T04:03:38.979Z,8.06
2018-01-29T04:04:39.405Z,8.05
2018-01-29T04:05:39.792Z,8.06
2018-01-29T04:06:39.787Z,8.06
2018-01-29T04:07:39.751Z,8.05
2018-01-29T04:08:39.633Z,8.06
2018-01-29T04:09:39.398Z,8.06
2018-01-29T04:10:39.851Z,8.05
2018-01-29T04:11:39.050Z,8.02
2018-01-29T04:12:39.656Z,8.01
2018-01-29T04:13:39.019Z,8.01
2018-01-29T04:14:39.567Z,8.01
2018-01-29T04:15:39.520Z,8.02
2018-01-29T04:16:40.459Z,8.01
2018-01-29T04:17:39.737Z,8.01
2018-01-29T04:18:39.776Z,7.99
2018-01-29T04:19:40.340Z,8.01
2018-01-29T04:20:39.057Z,7.98
2018-01-29T04:21:39.117Z,8.01
2018-01-29T04:22:41.279Z,8.02
2018-01-29T04:23:39.008Z,8.02
2018-01-29T04:24:38.897Z,8.03
2018-01-29T04:25:39.525Z,7.99
2018-01-29T04:26:38.891Z,8.03
2018-01-29T04:27:39.490Z,7.99
2018-01-29T04:28:38.940Z,8.01
2018-01-29T04:29:39.007Z,8.01
2018-01-29T04:30:39.128Z,8.01
2018-01-29T04:31:40.132Z,8.01
2018-01-29T04:32:40.344Z,8.01
2018-01-29T04:33:38.942Z,7.98
2018-01-29T04:34:41.605Z,7.98
2018-01-29T04:35:39.260Z,8.02
2018-01-29T04:36:38.911Z,8.01
2018-01-29T04:37:39.789Z,8.01
2018-01-29T04:38:39.505Z,8.01
2018-01-29T04:39:39.498Z,7.99
2018-01-29T04:40:41.043Z,8.03
2018-01-29T04:41:39.024Z,7.99
2018-01-29T04:42:39.233Z,8.02
2018-01-29T04:43:42.525Z,8.02
2018-01-29T04:44:39.219Z,8.01
2018-01-29T04:45:39.650Z,8.06
2018-01-29T04:46:39.699Z,8.02
2018-01-29T04:47:39.488Z,8.05
2018-01-29T04:48:38.974Z,8.05
2018-01-29T04:49:39.048Z,8.03
2018-01-29T04:50:41.228Z,8.05
2018-01-29T04:51:39.144Z,8.02
2018-01-29T04:52:38.963Z,8.02
2018-01-29T04:53:39.822Z,8.03
2018-01-29T04:54:40.086Z,8.02
2018-01-29T04:55:39.478Z,8.05
2018-01-29T04:56:39.152Z,8.03
2018-01-29T04:57:41.094Z,8.03
2018-01-29T04:58:40.487Z,8.03
2018-01-29T04:59:40.496Z,8.03
2018-01-29T05:00:39.822Z,8.02
2018-01-29T05:01:39.077Z,8.06
2018-01-29T05:02:39.138Z,8.05
2018-01-29T05:03:39.715Z,8.05
2018-01-29T05:04:39.817Z,8.06
2018-01-29T05:05:38.988Z,8.08
2018-01-29T05:06:43.967Z,8.05
2018-01-29T05:07:40.113Z,8.06
2018-01-29T05:08:38.934Z,8.06
2018-01-29T05:09:39.026Z,8.06
2018-01-29T05:10:40.046Z,8.05
2018-01-29T05:11:39.632Z,8.08
2018-01-29T05:15:40.400Z,8.06
2018-01-29T05:16:39.824Z,8.08
2018-01-29T05:17:39.735Z,8.08
2018-01-29T05:18:39.033Z,8.09
2018-01-29T05:19:41.229Z,8.06
2018-01-29T05:20:40.011Z,8.08
2018-01-29T05:21:39.008Z,8.12
2018-01-29T05:22:38.856Z,8.09
2018-01-29T05:23:40.482Z,8.09
2018-01-29T05:24:39.995Z,8.1
2018-01-29T05:25:39.759Z,8.1
2018-01-29T05:26:39.713Z,8.09
2018-01-29T05:27:39.588Z,8.12
2018-01-29T05:28:39.604Z,8.13
2018-01-29T05:29:40.377Z,8.1
2018-01-29T05:30:39.199Z,8.1
2018-01-29T05:31:41.151Z,8.1
2018-01-29T05:32:39.474Z,8.09
2018-01-29T05:33:40.932Z,8.1
2018-01-29T05:34:39.126Z,8.1
2018-01-29T05:35:39.023Z,8.1
2018-01-29T05:36:39.643Z,8.13
2018-01-29T05:37:40.050Z,8.1
2018-01-29T05:38:39.106Z,8.12
2018-01-29T05:39:40.375Z,8.14
2018-01-29T05:40:39.052Z,8.12
2018-01-29T05:41:40.121Z,8.13
2018-01-29T05:42:39.050Z,8.14
2018-01-29T05:43:39.027Z,8.16
2018-01-29T05:44:39.154Z,8.16
2018-01-29T05:45:39.344Z,8.14
2018-01-29T05:46:40.430Z,8.14
2018-01-29T05:47:41.262Z,8.14
2018-01-29T05:48:39.223Z,8.14
2018-01-29T05:49:41.038Z,8.13
2018-01-29T05:50:39.954Z,8.12
2018-01-29T05:51:40.065Z,8.14
2018-01-29T05:52:40.020Z,8.14
2018-01-29T05:53:39.034Z,8.16
2018-01-29T05:54:40.323Z,8.14
2018-01-29T05:55:39.141Z,8.14
2018-01-29T05:56:39.981Z,8.14
2018-01-29T05:57:39.389Z,8.13
2018-01-29T05:58:40.699Z,8.16
2018-01-29T06:01:59.255Z,8.16
2018-01-29T06:02:41.089Z,8.14
2018-01-29T06:03:39.588Z,8.16
2018-01-29T06:04:39.880Z,8.17
2018-01-29T06:05:39.569Z,8.16
2018-01-29T06:06:39.729Z,8.17
2018-01-29T06:07:41.148Z,8.17
2018-01-29T06:08:39.875Z,8.19
2018-01-29T06:09:40.243Z,8.2
2018-01-29T06:10:41.740Z,8.19
2018-01-29T06:11:42.723Z,8.17
2018-01-29T06:12:39.732Z,8.19
2018-01-29T06:13:40.369Z,8.17
2018-01-29T06:14:41.806Z,8.19
2018-01-29T06:15:39.534Z,8.23
2018-01-29T06:16:43.132Z,8.2
2018-01-29T06:17:39.714Z,8.2
2018-01-29T06:18:41.063Z,8.19
2018-01-29T06:19:39.626Z,8.2
2018-01-29T06:20:42.061Z,8.21
2018-01-29T06:21:41.002Z,8.21
2018-01-29T06:22:40.743Z,8.23
2018-01-29T06:23:40.157Z,8.19
2018-01-29T06:24:40.086Z,8.2
2018-01-29T06:25:39.729Z,8.21
2018-01-29T06:26:40.320Z,8.2
2018-01-29T06:27:39.664Z,8.2
2018-01-29T06:28:40.886Z,8.23
2018-01-29T06:29:39.611Z,8.2
2018-01-29T06:30:39.591Z,8.17
2018-01-29T06:31:40.702Z,8.2
2018-01-29T06:32:41.042Z,8.2
2018-01-29T06:33:40.289Z,8.2
2018-01-29T06:34:38.663Z,8.21
2018-01-29T06:35:39.101Z,8.23
2018-01-29T06:36:38.560Z,8.21
2018-01-29T06:37:38.700Z,8.19
2018-01-29T06:38:38.990Z,8.2
2018-01-29T06:39:38.641Z,8.21
2018-01-29T06:40:38.629Z,8.2
2018-01-29T06:41:38.531Z,8.2
2018-01-29T06:42:38.722Z,8.19
2018-01-29T06:43:38.755Z,8.2
2018-01-29T06:44:38.549Z,8.19
2018-01-29T06:45:38.577Z,8.19
2018-01-29T06:46:38.609Z,8.2
2018-01-29T06:47:38.644Z,8.17
2018-01-29T06:48:38.537Z,8.2
2018-01-29T06:49:38.560Z,8.19
2018-01-29T06:50:38.637Z,8.2
2018-01-29T06:51:38.721Z,8.19
2018-01-29T06:52:38.677Z,8.19
2018-01-29T06:53:38.690Z,8.19
2018-01-29T06:54:39.254Z,8.19
2018-01-29T06:55:38.683Z,8.19
2018-01-29T06:56:38.714Z,8.21
2018-01-29T06:57:38.697Z,8.2
2018-01-29T06:58:38.764Z,8.2
2018-01-29T06:59:38.631Z,8.2
2018-01-29T07:00:38.698Z,8.19
2018-01-29T07:01:38.738Z,8.21
2018-01-29T07:02:38.745Z,8.21
2018-01-29T07:03:39.122Z,8.21
2018-01-29T07:04:38.871Z,8.21
2018-01-29T07:05:38.883Z,8.2
2018-01-29T07:06:39.007Z,8.21
2018-01-29T07:07:39.070Z,8.23
2018-01-29T07:08:39.019Z,8.2
2018-01-29T07:09:38.937Z,8.2
2018-01-29T07:10:38.831Z,8.21
2018-01-29T07:11:38.952Z,8.21
2018-01-29T07:12:38.970Z,8.23
2018-01-29T07:13:38.998Z,8.21
2018-01-29T07:14:38.858Z,8.21
2018-01-29T07:15:38.817Z,8.26
2018-01-29T07:16:38.870Z,8.23
2018-01-29T07:17:38.877Z,8.23
2018-01-29T07:18:39.005Z,8.23
2018-01-29T07:19:38.970Z,8.24
2018-01-29T07:20:39.014Z,8.26
2018-01-29T07:21:38.922Z,8.24
2018-01-29T07:22:39.324Z,8.24
2018-01-29T07:23:39.225Z,8.24
2018-01-29T07:24:39.136Z,8.26
2018-01-29T07:25:39.164Z,8.26
2018-01-29T07:26:39.284Z,8.29
2018-01-29T07:27:38.931Z,8.27
2018-01-29T07:28:38.940Z,8.3
2018-01-29T07:29:38.778Z,8.27
2018-01-29T07:30:38.994Z,8.3
2018-01-29T07:31:38.939Z,8.3
2018-01-29T07:32:38.859Z,8.29
2018-01-29T07:33:39.219Z,8.27
2018-01-29T07:34:39.051Z,8.3
2018-01-29T07:35:38.991Z,8.29
2018-01-29T07:36:39.140Z,8.29
2018-01-29T07:37:39.054Z,8.29
2018-01-29T07:38:39.010Z,8.3
2018-01-29T07:39:39.146Z,8.29
2018-01-29T07:40:39.137Z,8.29
2018-01-29T07:41:38.907Z,8.29
2018-01-29T07:42:39.268Z,8.27
2018-01-29T07:43:39.098Z,8.27
2018-01-29T07:44:39.236Z,8.31
2018-01-29T07:45:39.202Z,8.3
2018-01-29T07:46:39.236Z,8.29
2018-01-29T07:47:39.102Z,8.27
2018-01-29T07:48:39.279Z,8.3
2018-01-29T07:49:39.182Z,8.29
2018-01-29T07:50:39.342Z,8.3
2018-01-29T07:51:39.347Z,8.3
2018-01-29T07:52:39.263Z,8.3
2018-01-29T07:53:39.262Z,8.29
2018-01-29T07:54:39.207Z,8.31
2018-01-29T07:55:39.343Z,8.3
2018-01-29T07:56:39.296Z,8.3
2018-01-29T07:57:39.211Z,8.31
2018-01-29T07:58:39.206Z,8.29
2018-01-29T07:59:39.134Z,8.31
2018-01-29T08:00:39.135Z,8.29
2018-01-29T08:01:39.148Z,8.29
2018-01-29T08:02:39.133Z,8.29
2018-01-29T08:03:39.355Z,8.3
2018-01-29T08:04:39.234Z,8.29
2018-01-29T08:05:39.266Z,8.27
2018-01-29T08:06:39.186Z,8.3
2018-01-29T08:07:39.277Z,8.3
2018-01-29T08:08:39.182Z,8.29
2018-01-29T08:09:39.310Z,8.3
2018-01-29T08:10:39.360Z,8.29
2018-01-29T08:11:39.500Z,8.3
2018-01-29T08:12:39.232Z,8.3
2018-01-29T08:13:39.207Z,8.29
2018-01-29T08:14:39.200Z,8.29
2018-01-29T08:15:39.222Z,8.31
2018-01-29T08:16:39.198Z,8.29
2018-01-29T08:17:39.146Z,8.3
2018-01-29T08:18:39.239Z,8.3
2018-01-29T08:19:39.166Z,8.31
2018-01-29T08:20:39.224Z,8.3
2018-01-29T08:21:39.257Z,8.31
2018-01-29T08:22:39.293Z,8.3
2018-01-29T08:23:39.332Z,8.31
2018-01-29T08:24:39.161Z,8.3
2018-01-29T08:25:39.194Z,8.31
2018-01-29T08:26:39.209Z,8.31
2018-01-29T08:27:39.287Z,8.31
2018-01-29T08:28:39.460Z,8.33
2018-01-29T08:29:39.117Z,8.33
2018-01-29T08:30:39.231Z,8.34
2018-01-29T08:31:39.271Z,8.34
2018-01-29T08:32:39.256Z,8.36
2018-01-29T08:33:39.534Z,8.34
2018-01-29T08:34:39.257Z,8.34
2018-01-29T08:35:39.229Z,8.37
2018-01-29T08:36:39.499Z,8.34
2018-01-29T08:37:39.241Z,8.37
2018-01-29T08:38:39.288Z,8.36
2018-01-29T08:39:39.256Z,8.37
2018-01-29T08:40:39.282Z,8.37
2018-01-29T08:41:39.325Z,8.36
2018-01-29T08:42:39.233Z,8.4
2018-01-29T08:43:39.406Z,8.37
2018-01-29T08:44:39.217Z,8.37
2018-01-29T08:45:39.266Z,8.4
2018-01-29T08:46:39.234Z,8.36
2018-01-29T08:47:39.257Z,8.36
2018-01-29T08:48:39.363Z,8.38
2018-01-29T08:49:39.242Z,8.38
2018-01-29T08:50:39.261Z,8.37
2018-01-29T08:51:39.253Z,8.36
2018-01-29T08:52:39.744Z,8.41
2018-01-29T08:53:39.297Z,8.38
2018-01-29T08:54:39.303Z,8.4
2018-01-29T08:55:39.271Z,8.4
2018-01-29T08:56:39.320Z,8.38
2018-01-29T08:57:39.382Z,8.4
2018-01-29T08:58:39.412Z,8.4
2018-01-29T08:59:39.332Z,8.36
2018-01-29T09:00:40.327Z,8.38
2018-01-29T09:01:39.190Z,8.38
2018-01-29T09:02:39.262Z,8.41
2018-01-29T09:03:39.353Z,8.41
2018-01-29T09:04:39.253Z,8.41
2018-01-29T09:05:39.717Z,8.41
2018-01-29T09:06:39.551Z,8.41
2018-01-29T09:07:39.454Z,8.4
2018-01-29T09:08:39.210Z,8.38
2018-01-29T09:09:39.287Z,8.43
2018-01-29T09:10:39.638Z,8.43
2018-01-29T09:11:39.384Z,8.44
2018-01-29T09:12:39.417Z,8.45
2018-01-29T09:13:39.276Z,8.43
2018-01-29T09:14:39.349Z,8.44
2018-01-29T09:15:39.327Z,8.43
2018-01-29T09:16:39.452Z,8.44
2018-01-29T09:17:39.383Z,8.45
2018-01-29T09:18:39.452Z,8.44
2018-01-29T09:19:39.255Z,8.45
2018-01-29T09:20:39.247Z,8.47
2018-01-29T09:21:39.397Z,8.44
2018-01-29T09:22:39.405Z,8.47
2018-01-29T09:23:39.294Z,8.47
2018-01-29T09:24:39.276Z,8.47
2018-01-29T09:25:39.437Z,8.48
2018-01-29T09:26:39.233Z,8.48
2018-01-29T09:27:39.430Z,8.47
2018-01-29T09:28:39.341Z,8.48
2018-01-29T09:29:39.437Z,8.47
2018-01-29T09:30:39.367Z,8.48
2018-01-29T09:31:39.425Z,8.49
2018-01-29T09:32:39.376Z,8.51
2018-01-29T09:33:39.504Z,8.49
2018-01-29T09:34:39.350Z,8.51
2018-01-29T09:35:39.355Z,8.52
2018-01-29T09:36:39.398Z,8.52
2018-01-29T09:37:39.389Z,8.52
2018-01-29T09:38:39.833Z,8.54
2018-01-29T09:39:39.426Z,8.52
2018-01-29T09:40:40.364Z,8.54
2018-01-29T09:41:39.699Z,8.57
2018-01-29T09:42:39.828Z,8.55
2018-01-29T09:43:39.629Z,8.57
2018-01-29T09:44:39.940Z,8.57
2018-01-29T09:45:39.600Z,8.57
2018-01-29T09:46:39.389Z,8.58
2018-01-29T09:47:39.267Z,8.59
2018-01-29T09:48:39.356Z,8.62
2018-01-29T09:49:39.478Z,8.61
2018-01-29T09:50:39.355Z,8.64
2018-01-29T09:51:39.915Z,8.62
2018-01-29T09:52:39.422Z,8.62
2018-01-29T09:53:39.717Z,8.65
2018-01-29T09:54:39.447Z,8.65
2018-01-29T09:55:39.360Z,8.66
2018-01-29T09:56:39.798Z,8.66
2018-01-29T09:57:39.850Z,8.69
2018-01-29T09:58:40.083Z,8.68
2018-01-29T09:59:39.374Z,8.69
2018-01-29T10:00:39.477Z,8.71
2018-01-29T10:01:39.689Z,8.69
2018-01-29T10:02:39.360Z,8.69
2018-01-29T10:03:39.622Z,8.71
2018-01-29T10:04:39.346Z,8.69
2018-01-29T10:05:39.305Z,8.74
2018-01-29T10:06:39.451Z,8.71
2018-01-29T10:07:39.351Z,8.74
2018-01-29T10:08:39.347Z,8.74
2018-01-29T10:09:39.164Z,8.74
2018-01-29T10:10:39.316Z,8.72
2018-01-29T10:11:39.104Z,8.74
2018-01-29T10:12:39.285Z,8.72
2018-01-29T10:13:39.268Z,8.74
2018-01-29T10:14:39.179Z,8.74
2018-01-29T10:15:39.260Z,8.75
2018-01-29T10:16:39.255Z,8.74
2018-01-29T10:17:39.352Z,8.74
2018-01-29T10:18:39.338Z,8.75
2018-01-29T10:19:39.275Z,8.72
2018-01-29T10:20:39.479Z,8.74
2018-01-29T10:21:39.345Z,8.74
2018-01-29T10:22:39.365Z,8.69
2018-01-29T10:23:39.427Z,8.71
2018-01-29T10:24:39.385Z,8.72
2018-01-29T10:25:39.331Z,8.72
2018-01-29T10:26:39.292Z,8.72
2018-01-29T10:27:39.410Z,8.71
2018-01-29T10:28:39.261Z,8.74
2018-01-29T10:29:39.262Z,8.76
2018-01-29T10:30:39.169Z,8.75
2018-01-29T10:31:39.134Z,8.75
2018-01-29T10:32:39.425Z,8.75
2018-01-29T10:33:39.352Z,8.75
2018-01-29T10:34:39.359Z,8.74
2018-01-29T10:35:39.510Z,8.75
2018-01-29T10:36:39.271Z,8.76
2018-01-29T10:37:39.282Z,8.75
2018-01-29T10:38:39.291Z,8.8
2018-01-29T10:39:39.403Z,8.78
2018-01-29T10:40:39.151Z,8.8
2018-01-29T10:41:39.259Z,8.79
2018-01-29T10:42:39.491Z,8.79
2018-01-29T10:43:39.392Z,8.8
2018-01-29T10:44:39.395Z,8.79
2018-01-29T10:45:39.432Z,8.85
2018-01-29T10:46:39.437Z,8.82
2018-01-29T10:47:39.492Z,8.8
2018-01-29T10:48:39.350Z,8.85
2018-01-29T10:49:39.804Z,8.85
2018-01-29T10:50:39.472Z,8.86
2018-01-29T10:51:39.329Z,8.86
2018-01-29T10:52:39.231Z,8.88
2018-01-29T10:53:39.444Z,8.89
2018-01-29T10:54:39.365Z,8.88
2018-01-29T10:55:39.434Z,8.86
2018-01-29T10:56:39.312Z,8.88
2018-01-29T11:00:39.736Z,8.89
2018-01-29T11:01:39.343Z,8.89
2018-01-29T11:02:39.463Z,8.92
2018-01-29T11:03:39.765Z,8.92
2018-01-29T11:04:39.568Z,8.93
2018-01-29T11:05:40.191Z,8.93
2018-01-29T11:06:39.485Z,8.92
2018-01-29T11:07:39.588Z,8.95
2018-01-29T11:08:39.517Z,8.95
2018-01-29T11:09:39.768Z,8.95
2018-01-29T11:10:39.882Z,8.99
2018-01-29T11:11:39.602Z,8.96
2018-01-29T11:12:39.396Z,8.98
2018-01-29T11:13:39.618Z,8.98
2018-01-29T11:14:39.890Z,8.98
2018-01-29T11:15:39.606Z,8.98
2018-01-29T11:16:39.641Z,8.98
2018-01-29T11:17:39.589Z,8.99
2018-01-29T11:18:39.539Z,9
2018-01-29T11:19:39.650Z,9
2018-01-29T11:20:39.464Z,9.03
2018-01-29T11:21:39.593Z,9.02
2018-01-29T11:22:39.486Z,9.03
2018-01-29T11:23:39.540Z,9.02
2018-01-29T11:24:39.632Z,9.02
2018-01-29T11:25:39.491Z,9.03
2018-01-29T11:26:39.572Z,9.04
2018-01-29T11:27:39.788Z,9.03
2018-01-29T11:28:39.491Z,9.06
2018-01-29T11:29:39.714Z,9.06
2018-01-29T11:30:39.519Z,9.07
2018-01-29T11:31:39.696Z,9.07
2018-01-29T11:32:39.598Z,9.06
2018-01-29T11:33:39.805Z,9.07
2018-01-29T11:34:39.854Z,9.1
2018-01-29T11:35:39.531Z,9.09
2018-01-29T11:36:39.548Z,9.09
2018-01-29T11:37:39.498Z,9.1
2018-01-29T11:38:39.611Z,9.09
2018-01-29T11:39:39.592Z,9.09
2018-01-29T11:40:39.497Z,9.06
2018-01-29T11:41:39.522Z,9.09
2018-01-29T11:42:39.603Z,9.1
2018-01-29T11:43:39.728Z,9.1
2018-01-29T11:44:39.618Z,9.13
2018-01-29T11:45:39.608Z,9.14
2018-01-29T11:46:39.691Z,9.14
2018-01-29T11:47:39.737Z,9.1
2018-01-29T11:48:39.821Z,9.11
2018-01-29T11:49:39.836Z,9.11
2018-01-29T11:50:39.518Z,9.1
2018-01-29T11:51:39.722Z,9.11
2018-01-29T11:52:39.794Z,9.11
2018-01-29T11:53:39.649Z,9.14
2018-01-29T11:54:39.798Z,9.14
2018-01-29T11:55:39.493Z,9.14
2018-01-29T11:56:39.545Z,9.11
2018-01-29T11:57:39.462Z,9.11
2018-01-29T11:58:39.727Z,9.13
2018-01-29T12:00:39.447Z,9.13
2018-01-29T12:01:39.465Z,9.11
2018-01-29T12:02:39.687Z,9.11
2018-01-29T12:03:40.351Z,9.13
2018-01-29T12:04:38.814Z,9.14
2018-01-29T12:05:38.909Z,9.13
2018-01-29T12:06:39.325Z,9.13
2018-01-29T12:07:38.794Z,9.14
2018-01-29T12:08:38.901Z,9.14
2018-01-29T12:09:38.909Z,9.14
2018-01-29T12:10:38.958Z,9.14
2018-01-29T12:11:38.875Z,9.14
2018-01-29T12:12:39.214Z,9.16
2018-01-29T12:13:38.780Z,9.14
2018-01-29T12:14:38.809Z,9.16
2018-01-29T12:15:39.023Z,9.16
2018-01-29T12:16:38.843Z,9.16
2018-01-29T12:17:39.027Z,9.19
2018-01-29T12:18:39.032Z,9.17
2018-01-29T12:19:38.874Z,9.14
2018-01-29T12:20:38.953Z,9.14
2018-01-29T12:21:38.949Z,9.17
2018-01-29T12:22:38.920Z,9.17
2018-01-29T12:23:38.914Z,9.17
2018-01-29T12:24:38.935Z,9.17
2018-01-29T12:25:38.914Z,9.17
2018-01-29T12:26:38.936Z,9.19
2018-01-29T12:27:38.932Z,9.19
2018-01-29T12:28:38.928Z,9.21
2018-01-29T12:29:38.819Z,9.2
2018-01-29T12:30:38.901Z,9.19
2018-01-29T12:31:39.201Z,9.21
2018-01-29T12:32:38.874Z,9.19
2018-01-29T12:33:39.440Z,9.21
2018-01-29T12:34:39.164Z,9.24
2018-01-29T12:35:39.231Z,9.21
2018-01-29T12:36:39.069Z,9.23
2018-01-29T12:37:39.098Z,9.23
2018-01-29T12:38:38.976Z,9.24
2018-01-29T12:39:39.060Z,9.27
2018-01-29T12:40:39.010Z,9.26
2018-01-29T12:41:38.978Z,9.3
2018-01-29T12:42:38.994Z,9.31
2018-01-29T12:43:39.067Z,9.3
2018-01-29T12:44:39.193Z,9.31
2018-01-29T12:45:39.015Z,9.34
2018-01-29T12:46:39.329Z,9.35
2018-01-29T12:47:39.315Z,9.34
2018-01-29T12:48:39.138Z,9.37
2018-01-29T12:49:39.258Z,9.35
2018-01-29T12:50:39.104Z,9.37
2018-01-29T12:51:39.511Z,9.38
2018-01-29T12:52:39.223Z,9.38
2018-01-29T12:53:39.174Z,9.37
2018-01-29T12:54:39.337Z,9.4
2018-01-29T12:55:39.143Z,9.38
2018-01-29T12:56:39.068Z,9.4
2018-01-29T12:57:38.960Z,9.37
2018-01-29T12:58:39.044Z,9.4
2018-01-29T12:59:39.267Z,9.38
2018-01-29T13:00:39.104Z,9.4
2018-01-29T13:01:39.012Z,9.41
2018-01-29T13:02:39.094Z,9.4
2018-01-29T13:03:39.263Z,9.4
2018-01-29T13:04:39.441Z,9.41
2018-01-29T13:05:39.241Z,9.4
2018-01-29T13:06:39.098Z,9.41
2018-01-29T13:07:39.257Z,9.42
2018-01-29T13:08:39.287Z,9.4
2018-01-29T13:09:39.418Z,9.4
2018-01-29T13:10:39.441Z,9.4
2018-01-29T13:11:39.195Z,9.4
2018-01-29T13:12:39.099Z,9.4
2018-01-29T13:13:39.092Z,9.41
2018-01-29T13:14:39.111Z,9.37
2018-01-29T13:15:39.477Z,9.38
2018-01-29T13:16:39.180Z,9.4
2018-01-29T13:17:39.314Z,9.38
2018-01-29T13:18:39.105Z,9.4
2018-01-29T13:19:39.075Z,9.38
2018-01-29T13:20:39.441Z,9.38
2018-01-29T13:21:39.254Z,9.38
2018-01-29T13:22:39.234Z,9.38
2018-01-29T13:23:39.221Z,9.38
2018-01-29T13:24:39.256Z,9.38
2018-01-29T13:25:39.292Z,9.38
2018-01-29T13:26:39.093Z,9.4
2018-01-29T13:27:39.176Z,9.4
2018-01-29T13:28:39.058Z,9.42
2018-01-29T13:29:39.433Z,9.41
2018-01-29T13:30:39.121Z,9.42
2018-01-29T13:31:39.251Z,9.4
2018-01-29T13:32:39.177Z,9.44